Time;durP1;ratioP1;P1;durP2;ratioP2;P2;SDS_P1;SDS_P2;PMS_P1;PMS_P2;Temp;Humidity;BMP_temperature;BMP_pressure;BME280_temperature;BME280_humidity;BME280_pressure;Samples;Min_cycle;Max_cycle;Signal;HPM_P1;HPM_P2
2024/02/01 00:04:55;;;;;;;6.13;2.90;;;;;;;;;;10456733;28;20051;-76
2024/02/01 00:10:12;;;;;;;8.95;3.22;;;;;;;;;;10474020;28;20040;-75
2024/02/01 00:15:19;;;;;;;5.55;2.08;;;;;;;;;;10481520;28;20128;-75
2024/02/01 00:20:30;;;;;;;7.93;3.80;;;;;;;;;;10475327;28;21800;-76
2024/02/01 00:26:02;;;;;;;7.40;3.63;;;;;;;;;;10478643;28;20575;-77
2024/02/01 00:31:23;;;;;;;7.07;2.58;;;;;;;;;;10475669;28;20356;-77
2024/02/01 00:36:32;;;;;;;11.32;3.85;;;;;;;;;;10478513;28;20395;-77
2024/02/01 00:41:54;;;;;;;11.70;3.75;;;;;;;;;;10477547;28;20070;-76
2024/02/01 00:47:01;;;;;;;8.15;3.22;;;;;;;;;;10463288;28;20036;-76
2024/02/01 00:52:07;;;;;;;3.83;2.20;;;;;;;;;;10474419;28;20735;-77
2024/02/01 00:57:17;;;;;;;8.90;4.20;;;;;;;;;;10478138;28;20075;-78
2024/02/01 01:02:34;;;;;;;9.02;3.80;;;;;;;;;;10463206;28;20063;-75
2024/02/01 01:07:39;;;;;;;9.88;4.13;;;;;;;;;;10458295;28;20047;-75
2024/02/01 01:13:11;;;;;;;6.93;2.78;;;;;;;;;;10477055;28;20044;-76
2024/02/01 01:18:25;;;;;;;9.10;3.92;;;;;;;;;;10460898;28;20048;-76
2024/02/01 01:23:42;;;;;;;6.03;2.08;;;;;;;;;;10461481;28;20506;-75
2024/02/01 01:28:56;;;;;;;5.20;2.22;;;;;;;;;;10470118;28;20040;-75
2024/02/01 01:34:08;;;;;;;8.38;4.00;;;;;;;;;;10471525;28;20059;-77
2024/02/01 01:39:17;;;;;;;11.27;4.20;;;;;;;;;;10437978;28;20051;-76
2024/02/01 01:44:23;;;;;;;9.23;3.13;;;;;;;;;;10456944;28;20052;-77
2024/02/01 01:49:32;;;;;;;8.65;3.45;;;;;;;;;;10457747;28;20065;-75
2024/02/01 01:54:38;;;;;;;16.23;6.63;;;;;;;;;;10471624;28;20143;-76
2024/02/01 01:59:43;;;;;;;;;;;;;;;;;;10457350;28;20465;-76
2024/02/01 02:04:53;;;;;;;14.85;5.40;;;;;;;;;;10455412;28;19973;-75
2024/02/01 02:10:03;;;;;;;11.48;5.18;;;;;;;;;;10474294;28;20088;-75
2024/02/01 02:15:14;;;;;;;21.33;7.50;;;;;;;;;;10441782;28;20087;-77
2024/02/01 02:20:32;;;;;;;21.45;7.75;;;;;;;;;;10471329;28;20033;-76
2024/02/01 02:25:40;;;;;;;19.92;7.18;;;;;;;;;;10474044;28;20127;-75
2024/02/01 02:30:47;;;;;;;23.17;8.57;;;;;;;;;;10439484;28;20045;-76
2024/02/01 02:35:55;;;;;;;18.00;8.23;;;;;;;;;;10468916;28;20691;-74
2024/02/01 02:41:03;;;;;;;15.27;7.00;;;;;;;;;;10468738;28;20541;-76
2024/02/01 02:46:08;;;;;;;15.88;6.22;;;;;;;;;;10454010;28;20162;-75
2024/02/01 02:51:15;;;;;;;18.42;7.03;;;;;;;;;;10455647;28;20050;-74
2024/02/01 02:56:24;;;;;;;18.27;7.70;;;;;;;;;;10454795;28;20043;-75
2024/02/01 03:01:40;;;;;;;13.25;5.15;;;;;;;;;;10452101;28;20040;-74
2024/02/01 03:06:55;;;;;;;13.43;5.13;;;;;;;;;;10472605;28;20056;-75
2024/02/01 03:12:08;;;;;;;13.85;5.68;;;;;;;;;;10472414;28;20049;-76
2024/02/01 03:17:18;;;;;;;14.77;5.60;;;;;;;;;;10471903;28;20044;-75
2024/02/01 03:22:24;;;;;;;12.60;5.32;;;;;;;;;;10481656;28;20044;-75
2024/02/01 03:27:33;;;;;;;12.57;4.80;;;;;;;;;;10487648;28;20045;-77
2024/02/01 03:32:40;;;;;;;9.73;4.20;;;;;;;;;;10480757;28;20091;-74
2024/02/01 03:38:01;;;;;;;10.63;4.22;;;;;;;;;;10475944;28;20089;-75
2024/02/01 03:43:06;;;;;;;12.85;4.78;;;;;;;;;;10473590;28;20056;-76
2024/02/01 03:48:17;;;;;;;8.25;2.97;;;;;;;;;;10478932;28;20486;-75
2024/02/01 03:53:23;;;;;;;10.95;4.25;;;;;;;;;;10477934;28;20053;-76
2024/02/01 03:58:41;;;;;;;10.60;3.95;;;;;;;;;;10467111;28;20041;-76
2024/02/01 04:03:49;;;;;;;7.13;2.85;;;;;;;;;;10468066;28;20075;-75
2024/02/01 04:08:56;;;;;;;6.78;2.95;;;;;;;;;;10464505;28;20757;-75
2024/02/01 04:14:04;;;;;;;8.93;2.90;;;;;;;;;;10479867;28;20052;-77
2024/02/01 04:19:09;;;;;;;7.20;1.90;;;;;;;;;;10478920;28;20052;-75
2024/02/01 04:24:18;;;;;;;6.70;2.67;;;;;;;;;;10479058;28;20618;-75
2024/02/01 04:29:42;;;;;;;6.13;2.47;;;;;;;;;;10474633;28;20762;-75
2024/02/01 04:34:53;;;;;;;3.92;1.75;;;;;;;;;;10446666;28;20363;-75
2024/02/01 04:40:04;;;;;;;8.83;3.00;;;;;;;;;;10462359;28;20070;-75
2024/02/01 04:45:12;;;;;;;4.30;2.05;;;;;;;;;;10461094;28;20044;-75
2024/02/01 04:55:43;;;;;;;9.60;2.40;;;;;;;;;;10475857;28;20067;-76
2024/02/01 05:00:55;;;;;;;9.15;3.60;;;;;;;;;;10480932;28;20117;-77
2024/02/01 05:06:20;;;;;;;8.63;3.13;;;;;;;;;;10480646;28;20045;-77
2024/02/01 05:11:35;;;;;;;11.35;3.58;;;;;;;;;;10454937;28;20128;-77
2024/02/01 05:16:49;;;;;;;7.18;2.35;;;;;;;;;;10483277;28;20068;-76
2024/02/01 05:22:00;;;;;;;3.70;1.98;;;;;;;;;;10479901;28;20037;-75
2024/02/01 05:27:22;;;;;;;5.55;1.65;;;;;;;;;;10479825;28;20210;-76
2024/02/01 05:32:33;;;;;;;4.57;2.22;;;;;;;;;;10482952;28;20040;-75
2024/02/01 05:37:46;;;;;;;11.30;4.05;;;;;;;;;;10481406;28;20052;-75
2024/02/01 05:48:14;;;;;;;4.45;2.78;;;;;;;;;;10476363;28;20071;-76
2024/02/01 05:53:26;;;;;;;5.63;2.47;;;;;;;;;;10476154;28;20056;-79
2024/02/01 05:58:45;;;;;;;5.63;2.58;;;;;;;;;;10476450;28;20208;-76
2024/02/01 06:03:55;;;;;;;7.10;2.85;;;;;;;;;;10477809;28;20114;-77
2024/02/01 06:09:04;;;;;;;11.15;3.13;;;;;;;;;;10458031;28;20080;-76
2024/02/01 06:14:14;;;;;;;7.78;3.60;;;;;;;;;;10476365;28;20123;-77
2024/02/01 06:19:48;;;;;;;11.43;3.47;;;;;;;;;;10460852;28;20053;-75
2024/02/01 06:24:54;;;;;;;6.60;2.75;;;;;;;;;;10459881;28;20171;-76
2024/02/01 06:30:10;;;;;;;11.30;3.75;;;;;;;;;;10478393;28;20045;-77
2024/02/01 06:35:22;;;;;;;8.88;3.50;;;;;;;;;;10456041;28;20048;-75
2024/02/01 06:40:48;;;;;;;9.13;3.30;;;;;;;;;;10459534;28;20440;-75
2024/02/01 06:46:01;;;;;;;10.57;3.78;;;;;;;;;;10474544;28;20055;-77
2024/02/01 06:51:21;;;;;;;7.90;3.38;;;;;;;;;;10475621;28;20133;-77
2024/02/01 06:56:48;;;;;;;9.50;3.10;;;;;;;;;;10452329;28;20690;-76
2024/02/01 07:02:03;;;;;;;11.07;3.30;;;;;;;;;;10481889;28;20048;-75
2024/02/01 07:07:29;;;;;;;6.30;2.47;;;;;;;;;;10485888;28;20462;-77
2024/02/01 07:12:53;;;;;;;8.73;3.72;;;;;;;;;;10467410;28;20124;-76
2024/02/01 07:18:14;;;;;;;9.45;4.22;;;;;;;;;;10482546;28;20138;-76
2024/02/01 08:12:44;;;;;;;10.57;4.82;;;;;;;;;;10475655;28;20200;-75
2024/02/01 08:17:52;;;;;;;13.93;5.63;;;;;;;;;;10478385;28;20044;-76
2024/02/01 08:22:59;;;;;;;10.35;4.35;;;;;;;;;;10460238;28;20037;-75
2024/02/01 08:28:06;;;;;;;12.55;4.75;;;;;;;;;;10456000;28;20064;-75
2024/02/01 08:33:23;;;;;;;11.38;4.93;;;;;;;;;;10477180;28;20040;-76
2024/02/01 08:38:27;;;;;;;6.68;3.03;;;;;;;;;;10459408;28;20094;-75
2024/02/01 08:43:33;;;;;;;12.35;4.47;;;;;;;;;;10476235;28;20173;-75
2024/02/01 08:48:50;;;;;;;12.65;4.13;;;;;;;;;;10458103;28;20057;-76
2024/02/01 08:54:02;;;;;;;8.38;3.65;;;;;;;;;;10469543;28;20074;-76
2024/02/01 08:59:22;;;;;;;11.52;3.70;;;;;;;;;;10473618;28;20072;-77
2024/02/01 09:04:31;;;;;;;15.23;4.63;;;;;;;;;;10475212;28;20636;-76
2024/02/01 09:09:39;;;;;;;12.02;5.20;;;;;;;;;;10476009;28;20496;-77
2024/02/01 09:14:45;;;;;;;9.60;3.20;;;;;;;;;;10481286;28;20063;-76
2024/02/01 09:19:53;;;;;;;8.23;3.25;;;;;;;;;;10460894;28;20039;-77
2024/02/01 09:25:05;;;;;;;12.50;4.72;;;;;;;;;;10443224;28;20047;-77
2024/02/01 09:30:26;;;;;;;9.25;3.67;;;;;;;;;;10461445;28;20029;-77
2024/02/01 09:35:38;;;;;;;9.93;3.90;;;;;;;;;;10475149;28;20302;-78
2024/02/01 09:40:45;;;;;;;7.30;3.92;;;;;;;;;;10479497;28;20071;-78
2024/02/01 09:46:02;;;;;;;10.07;4.38;;;;;;;;;;10479659;28;20052;-78
2024/02/01 09:51:17;;;;;;;9.82;4.05;;;;;;;;;;10458724;28;20428;-78
2024/02/01 09:56:30;;;;;;;8.65;3.97;;;;;;;;;;10455069;28;20113;-77
2024/02/01 10:01:43;;;;;;;10.40;3.63;;;;;;;;;;10467554;28;20052;-77
2024/02/01 10:06:50;;;;;;;7.35;3.50;;;;;;;;;;10449797;28;20064;-77
2024/02/01 10:11:59;;;;;;;8.95;3.35;;;;;;;;;;10467539;28;20039;-78
2024/02/01 10:23:01;;;;;;;7.47;3.95;;;;;;;;;;10459304;28;20048;-78
2024/02/01 10:28:08;;;;;;;8.82;3.75;;;;;;;;;;10436031;28;20202;-77
2024/02/01 10:33:17;;;;;;;7.13;3.60;;;;;;;;;;10455184;28;20048;-77
2024/02/01 10:38:26;;;;;;;8.52;3.83;;;;;;;;;;10471815;28;20457;-78
2024/02/01 10:43:35;;;;;;;13.18;4.03;;;;;;;;;;10454806;28;20048;-78
2024/02/01 10:54:18;;;;;;;10.38;3.58;;;;;;;;;;10487569;27;20441;-78
2024/02/01 10:59:22;;;;;;;7.15;3.85;;;;;;;;;;10487648;28;20190;-78
2024/02/01 11:04:33;;;;;;;13.15;4.00;;;;;;;;;;10486512;28;20078;-78
2024/02/01 11:09:42;;;;;;;12.13;4.22;;;;;;;;;;10491259;28;20040;-78
2024/02/01 11:14:48;;;;;;;6.97;3.15;;;;;;;;;;10487736;28;20127;-79
2024/02/01 11:19:52;;;;;;;11.32;4.43;;;;;;;;;;10493858;28;20044;-79
2024/02/01 11:25:04;;;;;;;7.78;3.10;;;;;;;;;;10485044;28;20039;-78
2024/02/01 11:30:21;;;;;;;;;;;;;;;;;;10485291;28;20050;-79
2024/02/01 11:35:27;;;;;;;10.75;4.15;;;;;;;;;;10487926;28;19952;-78
2024/02/01 11:40:32;;;;;;;13.63;4.35;;;;;;;;;;10526688;28;20036;-78
2024/02/01 11:45:35;;;;;;;10.23;3.42;;;;;;;;;;10532146;28;20190;-77
2024/02/01 11:50:38;;;;;;;14.38;5.05;;;;;;;;;;10526652;28;20312;-77
2024/02/01 11:55:42;;;;;;;12.27;4.55;;;;;;;;;;10528338;28;20417;-77
2024/02/01 12:00:49;;;;;;;9.85;4.00;;;;;;;;;;10525922;28;20054;-78
2024/02/01 12:06:07;;;;;;;10.75;3.42;;;;;;;;;;10502408;27;20132;-78
2024/02/01 12:11:12;;;;;;;4.22;2.47;;;;;;;;;;10543478;27;20054;-79
2024/02/01 12:16:25;;;;;;;8.27;3.40;;;;;;;;;;10541392;27;20517;-78
2024/02/01 12:21:30;;;;;;;9.30;1.95;;;;;;;;;;10545822;27;20637;-80
2024/02/01 12:26:34;;;;;;;7.47;3.80;;;;;;;;;;10539425;27;20051;-80
2024/02/01 12:31:37;;;;;;;6.22;2.80;;;;;;;;;;10539636;27;20128;-80
2024/02/01 12:36:40;;;;;;;8.70;3.83;;;;;;;;;;10538677;27;20119;-79
2024/02/01 12:41:46;;;;;;;8.73;2.97;;;;;;;;;;10540315;27;20421;-79
2024/02/01 12:46:48;;;;;;;6.18;2.33;;;;;;;;;;10537320;27;20043;-79
2024/02/01 12:51:53;;;;;;;9.15;3.60;;;;;;;;;;10525770;27;20051;-80
2024/02/01 12:56:57;;;;;;;5.78;2.90;;;;;;;;;;10538443;27;20135;-78
2024/02/01 13:02:00;;;;;;;9.15;4.30;;;;;;;;;;10540278;27;20135;-79
2024/02/01 13:07:11;;;;;;;8.35;3.30;;;;;;;;;;10542729;27;20043;-81
2024/02/01 13:12:22;;;;;;;7.78;3.17;;;;;;;;;;10536976;27;20382;-80
2024/02/01 13:17:26;;;;;;;5.30;2.03;;;;;;;;;;10543608;27;20043;-78
2024/02/01 13:22:31;;;;;;;4.97;2.50;;;;;;;;;;10523362;27;20048;-79
2024/02/01 13:27:35;;;;;;;10.27;3.55;;;;;;;;;;10538501;27;20036;-78
2024/02/01 13:32:38;;;;;;;6.50;2.60;;;;;;;;;;10526234;27;20481;-79
2024/02/01 13:37:41;;;;;;;7.68;3.05;;;;;;;;;;10537110;27;20106;-79
2024/02/01 13:42:45;;;;;;;7.63;2.90;;;;;;;;;;10542175;27;20036;-79
2024/02/01 13:47:50;;;;;;;4.82;2.60;;;;;;;;;;10537563;27;20119;-79
2024/02/01 13:52:56;;;;;;;8.10;3.40;;;;;;;;;;10537744;27;20052;-79
2024/02/01 13:58:01;;;;;;;5.88;3.38;;;;;;;;;;10539422;27;20047;-79
2024/02/01 14:03:04;;;;;;;7.55;3.58;;;;;;;;;;10536873;27;20162;-79
2024/02/01 14:08:08;;;;;;;6.40;3.03;;;;;;;;;;10535147;27;20162;-79
2024/02/01 14:13:14;;;;;;;7.43;3.47;;;;;;;;;;10537221;27;20074;-79
2024/02/01 14:18:16;;;;;;;5.28;2.85;;;;;;;;;;10537803;28;20191;-79
2024/02/01 14:23:20;;;;;;;9.70;4.03;;;;;;;;;;10536062;27;20402;-78
2024/02/01 14:28:24;;;;;;;6.40;2.33;;;;;;;;;;10534537;27;20050;-79
2024/02/01 14:33:27;;;;;;;;;;;;;;;;;;10532913;27;20044;-79
2024/02/01 14:38:29;;;;;;;8.93;2.95;;;;;;;;;;10532077;27;20419;-79
2024/02/01 14:43:33;;;;;;;6.70;2.97;;;;;;;;;;10536421;28;20066;-80
2024/02/01 14:48:36;;;;;;;6.60;2.83;;;;;;;;;;10535418;28;20121;-79
2024/02/01 14:53:39;;;;;;;7.68;2.53;;;;;;;;;;10534405;28;20392;-77
2024/02/01 14:58:43;;;;;;;4.68;2.35;;;;;;;;;;10531998;28;20073;-78
2024/02/01 15:03:50;;;;;;;7.88;2.75;;;;;;;;;;10533124;28;20044;-79
2024/02/01 15:08:58;;;;;;;4.82;2.50;;;;;;;;;;10534263;28;20044;-80
2024/02/01 15:14:02;;;;;;;4.20;1.45;;;;;;;;;;10531637;28;20035;-78
2024/02/01 15:19:08;;;;;;;7.65;2.88;;;;;;;;;;10518192;28;20131;-79
2024/02/01 15:24:14;;;;;;;2.45;1.50;;;;;;;;;;10535800;28;20452;-79
2024/02/01 15:29:19;;;;;;;7.05;2.70;;;;;;;;;;10535397;28;20252;-78
2024/02/01 15:34:21;;;;;;;;;;;;;;;;;;10532591;28;20076;-78
2024/02/01 15:39:26;;;;;;;5.22;2.10;;;;;;;;;;10538785;27;19924;-80
2024/02/01 15:44:29;;;;;;;;;;;;;;;;;;10547207;27;20115;-79
2024/02/01 15:49:34;;;;;;;4.97;1.87;;;;;;;;;;10545033;27;19934;-78
2024/02/01 15:54:37;;;;;;;6.47;2.97;;;;;;;;;;10539950;27;20124;-78
2024/02/01 15:59:40;;;;;;;4.72;2.15;;;;;;;;;;10543811;27;20047;-77
2024/02/01 16:04:44;;;;;;;6.50;2.70;;;;;;;;;;10543440;27;20041;-78
2024/02/01 16:09:47;;;;;;;6.32;2.40;;;;;;;;;;10538818;27;20131;-78
2024/02/01 16:14:51;;;;;;;3.35;1.80;;;;;;;;;;10544064;27;20040;-77
2024/02/01 16:19:55;;;;;;;4.15;1.70;;;;;;;;;;10540024;27;20509;-79
2024/02/01 16:24:58;;;;;;;5.78;2.42;;;;;;;;;;10538900;27;20043;-79
2024/02/01 16:30:05;;;;;;;5.23;2.47;;;;;;;;;;10539663;27;20051;-79
2024/02/01 16:35:28;;;;;;;3.78;1.90;;;;;;;;;;10538936;27;20044;-78
2024/02/01 16:40:34;;;;;;;5.05;2.30;;;;;;;;;;10542560;27;20040;-79
2024/02/01 16:45:37;;;;;;;6.43;2.63;;;;;;;;;;10539993;27;20055;-80
2024/02/01 16:50:45;;;;;;;8.73;3.38;;;;;;;;;;10540530;27;20223;-80
2024/02/01 16:55:53;;;;;;;4.75;2.33;;;;;;;;;;10543433;27;20070;-79
2024/02/01 17:00:57;;;;;;;8.00;3.22;;;;;;;;;;10541134;27;20417;-79
2024/02/01 17:06:05;;;;;;;4.50;2.10;;;;;;;;;;10542698;27;20174;-78
2024/02/01 17:11:08;;;;;;;4.53;2.40;;;;;;;;;;10536017;28;20500;-79
2024/02/01 17:16:20;;;;;;;7.82;3.60;;;;;;;;;;10535767;28;20789;-77
2024/02/01 17:21:26;;;;;;;5.28;3.20;;;;;;;;;;10517748;27;20039;-78
2024/02/01 17:26:32;;;;;;;6.85;3.08;;;;;;;;;;10538045;27;20066;-78
2024/02/01 17:31:35;;;;;;;7.78;3.90;;;;;;;;;;10537935;27;20185;-79
2024/02/01 17:36:40;;;;;;;9.85;3.90;;;;;;;;;;10534451;27;20048;-78
2024/02/01 17:41:43;;;;;;;5.25;2.90;;;;;;;;;;10537359;28;20040;-79
2024/02/01 17:46:53;;;;;;;8.50;3.38;;;;;;;;;;10533697;27;20477;-79
2024/02/01 17:51:57;;;;;;;7.80;3.78;;;;;;;;;;10537754;27;20048;-78
2024/02/01 17:57:00;;;;;;;7.53;2.53;;;;;;;;;;10532725;27;20097;-79
2024/02/01 18:02:08;;;;;;;10.70;3.45;;;;;;;;;;10531735;27;20046;-78
2024/02/01 18:07:18;;;;;;;10.20;4.90;;;;;;;;;;10534588;28;20499;-79
2024/02/01 18:12:22;;;;;;;12.20;4.57;;;;;;;;;;10533866;27;20044;-78
2024/02/01 18:17:37;;;;;;;8.63;4.18;;;;;;;;;;10533877;27;20608;-77
2024/02/01 18:22:42;;;;;;;5.05;2.10;;;;;;;;;;10532645;28;20040;-78
2024/02/01 18:27:47;;;;;;;9.63;4.65;;;;;;;;;;10529376;27;20038;-78
2024/02/01 18:32:50;;;;;;;8.82;4.03;;;;;;;;;;10528177;27;20087;-78
2024/02/01 18:37:54;;;;;;;7.93;3.47;;;;;;;;;;10526454;28;20055;-78
2024/02/01 18:42:59;;;;;;;10.05;4.70;;;;;;;;;;10510058;28;20868;-77
2024/02/01 18:48:02;;;;;;;13.85;6.15;;;;;;;;;;10531877;28;20063;-76
2024/02/01 18:53:06;;;;;;;13.07;4.97;;;;;;;;;;10529976;28;20096;-77
2024/02/01 18:58:09;;;;;;;;;;;;;;;;;;10537300;28;20371;-77
2024/02/01 19:03:17;;;;;;;12.68;4.95;;;;;;;;;;10531233;28;19966;-80
2024/02/01 19:08:27;;;;;;;12.27;5.45;;;;;;;;;;10528831;28;20575;-78
2024/02/01 19:13:49;;;;;;;10.65;4.97;;;;;;;;;;10533370;28;20050;-79
2024/02/01 19:18:56;;;;;;;12.90;5.35;;;;;;;;;;10540105;27;20043;-78
2024/02/01 19:24:05;;;;;;;12.23;5.43;;;;;;;;;;10541334;27;20048;-76
2024/02/01 19:29:10;;;;;;;13.15;5.40;;;;;;;;;;10536801;27;20055;-77
2024/02/01 19:34:16;;;;;;;9.40;4.15;;;;;;;;;;10538181;28;20051;-76
2024/02/01 19:39:23;;;;;;;10.82;5.03;;;;;;;;;;10538315;28;20058;-77
2024/02/01 19:44:27;;;;;;;8.77;3.78;;;;;;;;;;10539521;27;20070;-78
2024/02/01 19:49:31;;;;;;;14.20;5.25;;;;;;;;;;10538682;28;20044;-78
2024/02/01 19:54:36;;;;;;;8.77;2.97;;;;;;;;;;10536099;27;20047;-77
2024/02/01 19:59:39;;;;;;;9.60;4.80;;;;;;;;;;10540675;27;20054;-77
2024/02/01 20:04:43;;;;;;;12.55;5.55;;;;;;;;;;10537237;27;20066;-76
2024/02/01 20:09:49;;;;;;;3.05;1.42;;;;;;;;;;10537969;27;20528;-77
2024/02/01 20:14:52;;;;;;;9.98;4.80;;;;;;;;;;10541616;27;20044;-77
2024/02/01 20:19:57;;;;;;;13.45;5.32;;;;;;;;;;10531635;27;20120;-78
2024/02/01 20:25:01;;;;;;;9.70;5.13;;;;;;;;;;10532189;27;20430;-78
2024/02/01 20:30:07;;;;;;;12.27;5.10;;;;;;;;;;10533702;27;20313;-77
2024/02/01 20:35:11;;;;;;;12.05;5.00;;;;;;;;;;10533510;27;20051;-78
2024/02/01 20:40:28;;;;;;;10.83;4.93;;;;;;;;;;10535124;28;20152;-78
2024/02/01 20:45:32;;;;;;;10.82;4.95;;;;;;;;;;10506655;27;20394;-78
2024/02/01 20:50:35;;;;;;;11.52;5.25;;;;;;;;;;10528994;28;20169;-79
2024/02/01 20:55:39;;;;;;;11.95;4.78;;;;;;;;;;10516558;27;20031;-78
2024/02/01 21:00:42;;;;;;;;;;;;;;;;;;10536800;27;20075;-78
2024/02/01 21:05:47;;;;;;;9.90;4.40;;;;;;;;;;10534856;27;19950;-78
2024/02/01 21:10:52;;;;;;;10.00;4.70;;;;;;;;;;10539478;27;20055;-78
2024/02/01 21:15:55;;;;;;;15.13;5.15;;;;;;;;;;10534744;28;20034;-78
2024/02/01 21:21:01;;;;;;;5.80;2.47;;;;;;;;;;10534400;27;20048;-78
2024/02/01 21:26:19;;;;;;;13.35;5.63;;;;;;;;;;10533082;28;20130;-79
2024/02/01 21:31:43;;;;;;;14.40;5.50;;;;;;;;;;10530331;27;20203;-77
2024/02/01 21:36:56;;;;;;;13.35;5.38;;;;;;;;;;10534469;27;20062;-77
2024/02/01 21:41:59;;;;;;;15.20;6.03;;;;;;;;;;10536652;27;20036;-78
2024/02/01 21:47:03;;;;;;;10.50;5.30;;;;;;;;;;10533894;27;20105;-78
2024/02/01 21:52:06;;;;;;;12.30;5.28;;;;;;;;;;10533085;27;20384;-78
2024/02/01 21:57:10;;;;;;;15.37;6.30;;;;;;;;;;10514134;28;20069;-77
2024/02/01 22:02:14;;;;;;;14.77;6.30;;;;;;;;;;10536124;27;20078;-77
2024/02/01 22:07:16;;;;;;;;;;;;;;;;;;10532334;27;20054;-78
2024/02/01 22:12:19;;;;;;;15.07;6.47;;;;;;;;;;10535227;27;19935;-77
2024/02/01 22:17:23;;;;;;;15.75;5.70;;;;;;;;;;10541288;27;20062;-77
2024/02/01 22:22:27;;;;;;;14.23;6.20;;;;;;;;;;10530202;27;20409;-79
2024/02/01 22:27:30;;;;;;;14.50;6.18;;;;;;;;;;10528759;27;20040;-79
2024/02/01 22:32:34;;;;;;;15.27;6.65;;;;;;;;;;10532008;28;20105;-78
2024/02/01 22:37:38;;;;;;;10.45;4.50;;;;;;;;;;10533869;27;20042;-77
2024/02/01 22:42:41;;;;;;;14.10;6.82;;;;;;;;;;10530306;28;20126;-77
2024/02/01 22:47:45;;;;;;;15.25;5.97;;;;;;;;;;10533190;28;20062;-76
2024/02/01 22:52:48;;;;;;;;;;;;;;;;;;10534251;28;20109;-76
2024/02/01 22:57:50;;;;;;;15.82;6.55;;;;;;;;;;10531427;28;19928;-77
2024/02/01 23:02:55;;;;;;;18.73;7.28;;;;;;;;;;10531964;28;20102;-77
2024/02/01 23:07:58;;;;;;;16.77;7.18;;;;;;;;;;10509238;28;20066;-77
2024/02/01 23:13:01;;;;;;;13.20;5.85;;;;;;;;;;10525119;28;20289;-76
2024/02/01 23:18:06;;;;;;;17.60;7.38;;;;;;;;;;10535739;28;20052;-77
2024/02/01 23:23:09;;;;;;;13.25;5.20;;;;;;;;;;10529428;28;20043;-77
2024/02/01 23:28:12;;;;;;;17.17;6.97;;;;;;;;;;10532094;28;20044;-77
2024/02/01 23:33:16;;;;;;;13.70;5.68;;;;;;;;;;10530767;28;20058;-76
2024/02/01 23:38:19;;;;;;;17.10;7.90;;;;;;;;;;10528911;28;20047;-76
2024/02/01 23:43:22;;;;;;;13.70;6.45;;;;;;;;;;10532449;28;20041;-77
2024/02/01 23:48:26;;;;;;;16.38;6.53;;;;;;;;;;10531860;28;20063;-77
2024/02/01 23:53:29;;;;;;;20.75;7.85;;;;;;;;;;10531761;28;20143;-76
2024/02/01 23:58:31;;;;;;;21.38;7.80;;;;;;;;;;10535033;27;20181;-76
